KMIW

Marshalltown Municipal Airport

Marshalltown, Iowa, USA
METAR KMIW 170653Z AUTO 30008KT 10SM CLR M04/M04 A3023 RMK AO2 SLP246 T10391044
Observed Flight Rules
Dec-17 @ 06:53 UTC (37 minutes ago) Visual Flight Rules
Wind Visibility Clouds
300° at 8 knots 10 miles
  • Clear skies
Temperatures Readings
Current -4°C / 25°F
Dewpoint -4°C / 25°F
Humidity 100%
Altimeter 30.23" Hg
Pressure 1024.6 hPa
Elevation 296
METAR KMIW 170653Z AUTO 30008KT 10SM CLR M04/M04 A3023 RMK AO2 SLP246 T10391044
Observed Flight Rules
Dec-17 @ 06:53 UTC
(37 minutes ago)
VFR
Wind Visibility
300° at 8 knots 10 miles
Clouds
  • Clear skies
Temperature Dewpoint
-4°C / 25°F -4°C / 25°F
Humidity Altimeter Pressure
100% 30.23" Hg 1024.6 hPa